sensor_id;sensor_type;location;lat;lon;timestamp;pressure;altitude;pressure_sealevel;temperature;humidity
73267;BME280;61495;53.400;7.608;2023-03-01T00:01:26;103245.50;;;-1.01;81.75
73267;BME280;61495;53.400;7.608;2023-03-01T00:03:52;103241.25;;;-1.04;81.56
73267;BME280;61495;53.400;7.608;2023-03-01T00:06:19;103247.31;;;-1.03;82.03
73267;BME280;61495;53.400;7.608;2023-03-01T00:08:45;103234.31;;;-1.06;82.54
73267;BME280;61495;53.400;7.608;2023-03-01T00:11:24;103231.78;;;-1.08;81.83
73267;BME280;61495;53.400;7.608;2023-03-01T00:13:53;103227.56;;;-1.12;82.69
73267;BME280;61495;53.400;7.608;2023-03-01T00:16:29;103238.09;;;-1.12;81.86
73267;BME280;61495;53.400;7.608;2023-03-01T00:18:56;103232.22;;;-1.17;83.03
73267;BME280;61495;53.400;7.608;2023-03-01T00:21:22;103234.22;;;-1.22;83.03
73267;BME280;61495;53.400;7.608;2023-03-01T00:23:48;103235.25;;;-1.26;82.43
73267;BME280;61495;53.400;7.608;2023-03-01T00:26:15;103231.88;;;-1.28;83.56
73267;BME280;61495;53.400;7.608;2023-03-01T00:28:41;103245.06;;;-1.30;82.45
73267;BME280;61495;53.400;7.608;2023-03-01T00:31:08;103243.38;;;-1.31;82.95
73267;BME280;61495;53.400;7.608;2023-03-01T00:33:34;103255.81;;;-1.34;83.02
73267;BME280;61495;53.400;7.608;2023-03-01T00:36:00;103242.94;;;-1.40;82.81
73267;BME280;61495;53.400;7.608;2023-03-01T00:38:26;103239.66;;;-1.45;82.50
73267;BME280;61495;53.400;7.608;2023-03-01T00:40:51;103239.66;;;-1.45;82.07
73267;BME280;61495;53.400;7.608;2023-03-01T00:43:17;103236.25;;;-1.47;82.71
73267;BME280;61495;53.400;7.608;2023-03-01T00:45:43;103235.41;;;-1.48;83.04
73267;BME280;61495;53.400;7.608;2023-03-01T00:48:08;103237.16;;;-1.48;83.60
73267;BME280;61495;53.400;7.608;2023-03-01T00:50:34;103230.22;;;-1.49;83.84
73267;BME280;61495;53.400;7.608;2023-03-01T00:52:59;103225.25;;;-1.55;83.47
73267;BME280;61495;53.400;7.608;2023-03-01T00:55:24;103222.47;;;-1.52;82.82
73267;BME280;61495;53.400;7.608;2023-03-01T00:57:50;103210.81;;;-1.65;83.28
73267;BME280;61495;53.400;7.608;2023-03-01T01:00:16;103217.63;;;-1.61;83.77
73267;BME280;61495;53.400;7.608;2023-03-01T01:02:42;103219.50;;;-1.63;82.33
73267;BME280;61495;53.400;7.608;2023-03-01T01:05:07;103216.91;;;-1.65;83.09
73267;BME280;61495;53.400;7.608;2023-03-01T01:07:33;103220.53;;;-1.67;82.38
73267;BME280;61495;53.400;7.608;2023-03-01T01:09:58;103223.16;;;-1.67;82.53
73267;BME280;61495;53.400;7.608;2023-03-01T01:12:24;103224.16;;;-1.70;82.95
73267;BME280;61495;53.400;7.608;2023-03-01T01:14:49;103221.59;;;-1.72;82.31
73267;BME280;61495;53.400;7.608;2023-03-01T01:17:15;103213.06;;;-1.77;83.11
73267;BME280;61495;53.400;7.608;2023-03-01T01:19:40;103214.78;;;-1.76;83.00
73267;BME280;61495;53.400;7.608;2023-03-01T01:22:05;103209.53;;;-1.76;83.05
73267;BME280;61495;53.400;7.608;2023-03-01T01:24:31;103197.31;;;-1.77;83.74
73267;BME280;61495;53.400;7.608;2023-03-01T01:26:56;103197.44;;;-1.80;83.38
73267;BME280;61495;53.400;7.608;2023-03-01T01:29:22;103201.78;;;-1.79;84.17
73267;BME280;61495;53.400;7.608;2023-03-01T01:31:47;103198.31;;;-1.79;83.81
73267;BME280;61495;53.400;7.608;2023-03-01T01:34:14;103184.22;;;-1.78;84.15
73267;BME280;61495;53.400;7.608;2023-03-01T01:36:39;103186.94;;;-1.80;83.78
73267;BME280;61495;53.400;7.608;2023-03-01T01:39:05;103188.78;;;-1.82;84.16
73267;BME280;61495;53.400;7.608;2023-03-01T01:41:31;103180.13;;;-1.84;84.44
73267;BME280;61495;53.400;7.608;2023-03-01T01:44:21;103176.56;;;-1.83;85.66
73267;BME280;61495;53.400;7.608;2023-03-01T01:46:55;103176.72;;;-1.86;85.33
73267;BME280;61495;53.400;7.608;2023-03-01T01:49:41;103169.69;;;-1.85;84.45
73267;BME280;61495;53.400;7.608;2023-03-01T01:52:13;103162.81;;;-1.88;84.30
73267;BME280;61495;53.400;7.608;2023-03-01T01:55:00;103167.19;;;-1.88;85.54
73267;BME280;61495;53.400;7.608;2023-03-01T01:57:40;103167.25;;;-1.90;84.88
73267;BME280;61495;53.400;7.608;2023-03-01T02:00:14;103161.22;;;-1.92;84.68
73267;BME280;61495;53.400;7.608;2023-03-01T02:02:40;103157.69;;;-1.91;85.58
73267;BME280;61495;53.400;7.608;2023-03-01T02:07:45;103129.28;;;-2.01;85.68
73267;BME280;61495;53.400;7.608;2023-03-01T02:10:11;103149.00;;;-1.93;85.55
73267;BME280;61495;53.400;7.608;2023-03-01T02:12:38;103140.34;;;-1.95;85.68
73267;BME280;61495;53.400;7.608;2023-03-01T02:15:05;103144.84;;;-1.97;84.80
73267;BME280;61495;53.400;7.608;2023-03-01T02:17:30;103150.09;;;-1.97;85.56
73267;BME280;61495;53.400;7.608;2023-03-01T02:20:07;103153.56;;;-1.96;85.93
73267;BME280;61495;53.400;7.608;2023-03-01T02:22:39;103137.97;;;-1.99;85.95
73267;BME280;61495;53.400;7.608;2023-03-01T02:30:29;103148.00;;;-2.09;85.56
73267;BME280;61495;53.400;7.608;2023-03-01T02:32:57;103135.88;;;-2.11;86.48
73267;BME280;61495;53.400;7.608;2023-03-01T02:35:37;103140.19;;;-2.10;85.93
73267;BME280;61495;53.400;7.608;2023-03-01T02:38:07;103136.78;;;-2.12;85.71
73267;BME280;61495;53.400;7.608;2023-03-01T02:40:34;103133.38;;;-2.14;86.68
73267;BME280;61495;53.400;7.608;2023-03-01T02:43:00;103129.13;;;-2.17;85.87
73267;BME280;61495;53.400;7.608;2023-03-01T02:45:27;103125.69;;;-2.19;85.65
73267;BME280;61495;53.400;7.608;2023-03-01T02:47:56;103132.59;;;-2.16;85.83
73267;BME280;61495;53.400;7.608;2023-03-01T02:55:22;103123.06;;;-2.19;85.85
73267;BME280;61495;53.400;7.608;2023-03-01T02:57:48;103128.41;;;-2.20;85.38
73267;BME280;61495;53.400;7.608;2023-03-01T03:00:23;103124.03;;;-2.20;86.31
73267;BME280;61495;53.400;7.608;2023-03-01T03:02:52;103127.56;;;-2.21;85.84
73267;BME280;61495;53.400;7.608;2023-03-01T03:05:20;103125.84;;;-2.22;85.48
73267;BME280;61495;53.400;7.608;2023-03-01T03:07:47;103132.81;;;-2.21;85.28
73267;BME280;61495;53.400;7.608;2023-03-01T03:10:20;103131.09;;;-2.22;85.41
73267;BME280;61495;53.400;7.608;2023-03-01T03:12:50;103124.28;;;-2.26;85.38
73267;BME280;61495;53.400;7.608;2023-03-01T03:15:16;103120.00;;;-2.29;85.30
73267;BME280;61495;53.400;7.608;2023-03-01T03:17:43;103119.19;;;-2.29;85.12
73267;BME280;61495;53.400;7.608;2023-03-01T03:20:10;103121.84;;;-2.31;85.13
73267;BME280;61495;53.400;7.608;2023-03-01T03:22:40;103115.88;;;-2.34;85.14
73267;BME280;61495;53.400;7.608;2023-03-01T03:25:09;103121.06;;;-2.33;85.17
73267;BME280;61495;53.400;7.608;2023-03-01T03:27:36;103129.94;;;-2.35;85.99
73267;BME280;61495;53.400;7.608;2023-03-01T03:30:03;103114.50;;;-2.43;85.28
73267;BME280;61495;53.400;7.608;2023-03-01T03:32:30;103123.19;;;-2.41;86.00
73267;BME280;61495;53.400;7.608;2023-03-01T03:34:55;103124.16;;;-2.43;85.66
73267;BME280;61495;53.400;7.608;2023-03-01T03:37:20;103115.59;;;-2.47;86.27
73267;BME280;61495;53.400;7.608;2023-03-01T03:40:04;103114.88;;;-2.50;86.10
73267;BME280;61495;53.400;7.608;2023-03-01T03:42:40;103117.50;;;-2.50;86.17
73267;BME280;61495;53.400;7.608;2023-03-01T03:45:06;103124.56;;;-2.52;85.88
73267;BME280;61495;53.400;7.608;2023-03-01T03:47:32;103127.16;;;-2.52;85.50
73267;BME280;61495;53.400;7.608;2023-03-01T03:49:57;103123.78;;;-2.54;85.72
73267;BME280;61495;53.400;7.608;2023-03-01T03:52:22;103116.81;;;-2.55;85.98
73267;BME280;61495;53.400;7.608;2023-03-01T03:54:47;103118.66;;;-2.57;86.91
73267;BME280;61495;53.400;7.608;2023-03-01T03:57:13;103103.91;;;-2.60;87.47
73267;BME280;61495;53.400;7.608;2023-03-01T03:59:38;103111.91;;;-2.63;87.29
73267;BME280;61495;53.400;7.608;2023-03-01T04:02:03;103105.88;;;-2.65;86.11
73267;BME280;61495;53.400;7.608;2023-03-01T04:04:29;103113.81;;;-2.66;85.89
73267;BME280;61495;53.400;7.608;2023-03-01T04:06:54;103119.06;;;-2.66;86.24
73267;BME280;61495;53.400;7.608;2023-03-01T04:09:19;103112.94;;;-2.67;85.94
73267;BME280;61495;53.400;7.608;2023-03-01T04:11:45;103110.41;;;-2.68;86.95
73267;BME280;61495;53.400;7.608;2023-03-01T04:14:10;103111.31;;;-2.69;86.13
73267;BME280;61495;53.400;7.608;2023-03-01T04:16:35;103107.91;;;-2.71;86.74
73267;BME280;61495;53.400;7.608;2023-03-01T04:19:01;103107.13;;;-2.73;86.51
73267;BME280;61495;53.400;7.608;2023-03-01T04:21:26;103103.53;;;-2.71;87.09
73267;BME280;61495;53.400;7.608;2023-03-01T04:23:52;103106.19;;;-2.72;87.47
73267;BME280;61495;53.400;7.608;2023-03-01T04:26:18;103101.03;;;-2.74;87.74
73267;BME280;61495;53.400;7.608;2023-03-01T04:28:45;103100.19;;;-2.74;87.23
73267;BME280;61495;53.400;7.608;2023-03-01T04:31:13;103100.09;;;-2.73;88.00
73267;BME280;61495;53.400;7.608;2023-03-01T04:33:46;103097.44;;;-2.71;87.36
73267;BME280;61495;53.400;7.608;2023-03-01T04:36:13;103091.53;;;-2.76;87.69
73267;BME280;61495;53.400;7.608;2023-03-01T04:38:39;103101.75;;;-2.70;87.69
73267;BME280;61495;53.400;7.608;2023-03-01T04:41:07;103094.81;;;-2.71;86.94
73267;BME280;61495;53.400;7.608;2023-03-01T04:43:33;103095.66;;;-2.71;87.91
73267;BME280;61495;53.400;7.608;2023-03-01T04:46:09;103087.78;;;-2.71;87.65
73267;BME280;61495;53.400;7.608;2023-03-01T04:48:36;103079.06;;;-2.71;87.18
73267;BME280;61495;53.400;7.608;2023-03-01T04:51:03;103080.91;;;-2.73;87.27
73267;BME280;61495;53.400;7.608;2023-03-01T04:53:28;103074.09;;;-2.77;86.87
73267;BME280;61495;53.400;7.608;2023-03-01T04:55:55;103072.22;;;-2.75;86.52
73267;BME280;61495;53.400;7.608;2023-03-01T04:58:22;103071.31;;;-2.74;86.94
73267;BME280;61495;53.400;7.608;2023-03-01T05:00:48;103068.69;;;-2.74;86.91
73267;BME280;61495;53.400;7.608;2023-03-01T05:03:13;103061.75;;;-2.75;87.60
73267;BME280;61495;53.400;7.608;2023-03-01T05:05:43;103070.56;;;-2.76;87.19
73267;BME280;61495;53.400;7.608;2023-03-01T05:08:09;103068.75;;;-2.76;87.58
73267;BME280;61495;53.400;7.608;2023-03-01T05:10:44;103062.72;;;-2.78;86.93
73267;BME280;61495;53.400;7.608;2023-03-01T05:13:11;103061.88;;;-2.78;87.27
73267;BME280;61495;53.400;7.608;2023-03-01T05:15:38;103054.13;;;-2.82;86.95
73267;BME280;61495;53.400;7.608;2023-03-01T05:18:04;103062.00;;;-2.82;87.28
73267;BME280;61495;53.400;7.608;2023-03-01T05:20:32;103056.75;;;-2.82;87.10
73267;BME280;61495;53.400;7.608;2023-03-01T05:23:01;103059.47;;;-2.83;87.51
73267;BME280;61495;53.400;7.608;2023-03-01T05:25:31;103051.53;;;-2.82;88.22
73267;BME280;61495;53.400;7.608;2023-03-01T05:28:01;103049.84;;;-2.83;87.32
73267;BME280;61495;53.400;7.608;2023-03-01T05:30:31;103053.38;;;-2.84;87.40
73267;BME280;61495;53.400;7.608;2023-03-01T05:32:56;103051.66;;;-2.85;88.00
73267;BME280;61495;53.400;7.608;2023-03-01T05:35:22;103049.97;;;-2.86;88.50
73267;BME280;61495;53.400;7.608;2023-03-01T05:37:48;103041.25;;;-2.86;88.00
73267;BME280;61495;53.400;7.608;2023-03-01T05:40:16;103040.38;;;-2.87;88.43
73267;BME280;61495;53.400;7.608;2023-03-01T05:42:47;103037.00;;;-2.89;87.45
73267;BME280;61495;53.400;7.608;2023-03-01T05:45:14;103042.22;;;-2.89;88.11
73267;BME280;61495;53.400;7.608;2023-03-01T05:47:41;103038.75;;;-2.89;87.88
73267;BME280;61495;53.400;7.608;2023-03-01T05:50:12;103040.50;;;-2.90;88.95
73267;BME280;61495;53.400;7.608;2023-03-01T05:52:37;103037.03;;;-2.90;89.52
73267;BME280;61495;53.400;7.608;2023-03-01T05:55:03;103043.34;;;-2.94;88.46
73267;BME280;61495;53.400;7.608;2023-03-01T05:57:29;103042.38;;;-2.92;89.09
73267;BME280;61495;53.400;7.608;2023-03-01T05:59:55;103034.63;;;-2.95;87.16
73267;BME280;61495;53.400;7.608;2023-03-01T06:02:20;103045.97;;;-2.94;89.18
73267;BME280;61495;53.400;7.608;2023-03-01T06:04:45;103040.00;;;-2.98;87.41
73267;BME280;61495;53.400;7.608;2023-03-01T06:07:10;103038.16;;;-2.96;88.90
73267;BME280;61495;53.400;7.608;2023-03-01T06:09:36;103043.53;;;-2.99;88.00
73267;BME280;61495;53.400;7.608;2023-03-01T06:12:01;103045.25;;;-2.98;89.08
73267;BME280;61495;53.400;7.608;2023-03-01T06:14:36;103048.78;;;-2.99;89.82
73267;BME280;61495;53.400;7.608;2023-03-01T06:17:01;103057.53;;;-3.00;89.32
73267;BME280;61495;53.400;7.608;2023-03-01T06:19:27;103053.16;;;-2.99;88.20
73267;BME280;61495;53.400;7.608;2023-03-01T06:21:52;103055.88;;;-3.01;87.14
73267;BME280;61495;53.400;7.608;2023-03-01T06:24:17;103055.88;;;-3.01;88.44
73267;BME280;61495;53.400;7.608;2023-03-01T06:26:43;103065.41;;;-3.00;89.62
73267;BME280;61495;53.400;7.608;2023-03-01T06:29:08;103061.09;;;-3.01;89.57
73267;BME280;61495;53.400;7.608;2023-03-01T06:31:34;103062.00;;;-3.02;88.85
73267;BME280;61495;53.400;7.608;2023-03-01T06:33:59;103056.63;;;-2.99;88.29
73267;BME280;61495;53.400;7.608;2023-03-01T06:36:25;103063.72;;;-3.01;87.91
73267;BME280;61495;53.400;7.608;2023-03-01T06:38:50;103068.03;;;-3.00;87.72
73267;BME280;61495;53.400;7.608;2023-03-01T06:41:16;103073.28;;;-3.00;88.16
73267;BME280;61495;53.400;7.608;2023-03-01T06:43:42;103066.22;;;-2.98;88.17
73267;BME280;61495;53.400;7.608;2023-03-01T06:46:07;103070.66;;;-3.00;88.69
73267;BME280;61495;53.400;7.608;2023-03-01T06:48:33;103074.13;;;-2.99;89.32
73267;BME280;61495;53.400;7.608;2023-03-01T06:50:59;103082.81;;;-2.97;89.39
73267;BME280;61495;53.400;7.608;2023-03-01T06:53:29;103077.59;;;-2.99;89.46
73267;BME280;61495;53.400;7.608;2023-03-01T06:55:56;103078.38;;;-2.97;88.43
73267;BME280;61495;53.400;7.608;2023-03-01T06:58:21;103079.25;;;-2.96;88.96
73267;BME280;61495;53.400;7.608;2023-03-01T07:00:47;103080.09;;;-2.96;88.64
73267;BME280;61495;53.400;7.608;2023-03-01T07:03:12;103083.59;;;-2.95;89.12
73267;BME280;61495;53.400;7.608;2023-03-01T07:05:37;103078.34;;;-2.95;89.22
73267;BME280;61495;53.400;7.608;2023-03-01T07:08:03;103087.78;;;-2.91;88.26
73267;BME280;61495;53.400;7.608;2023-03-01T07:10:28;103090.34;;;-2.90;87.67
73267;BME280;61495;53.400;7.608;2023-03-01T07:12:57;103090.41;;;-2.91;87.31
73267;BME280;61495;53.400;7.608;2023-03-01T07:15:24;103071.38;;;-2.96;87.50
73267;BME280;61495;53.400;7.608;2023-03-01T07:17:49;103092.69;;;-2.84;87.81
73267;BME280;61495;53.400;7.608;2023-03-01T07:20:16;103090.00;;;-2.82;87.92
73267;BME280;61495;53.400;7.608;2023-03-01T07:22:42;103085.56;;;-2.80;87.63
73267;BME280;61495;53.400;7.608;2023-03-01T07:25:09;103091.53;;;-2.76;87.11
73267;BME280;61495;53.400;7.608;2023-03-01T07:27:35;103078.47;;;-2.78;87.09
73267;BME280;61495;53.400;7.608;2023-03-01T07:30:00;103084.31;;;-2.71;87.96
73267;BME280;61495;53.400;7.608;2023-03-01T07:32:26;103084.19;;;-2.68;86.83
73267;BME280;61495;53.400;7.608;2023-03-01T07:34:51;103061.34;;;-2.66;87.17
73267;BME280;61495;53.400;7.608;2023-03-01T07:37:17;103059.53;;;-2.64;86.85
73267;BME280;61495;53.400;7.608;2023-03-01T07:39:42;103058.47;;;-2.60;87.27
73267;BME280;61495;53.400;7.608;2023-03-01T07:42:08;103055.06;;;-2.62;87.60
73267;BME280;61495;53.400;7.608;2023-03-01T07:44:33;103069.31;;;-2.49;87.23
73267;BME280;61495;53.400;7.608;2023-03-01T07:47:00;103074.56;;;-2.49;87.59
73267;BME280;61495;53.400;7.608;2023-03-01T07:49:25;103074.31;;;-2.43;86.88
73267;BME280;61495;53.400;7.608;2023-03-01T07:51:53;103060.53;;;-2.48;86.94
73267;BME280;61495;53.400;7.608;2023-03-01T07:54:19;103082.69;;;-2.35;86.94
73267;BME280;61495;53.400;7.608;2023-03-01T07:56:44;103073.69;;;-2.30;86.71
73267;BME280;61495;53.400;7.608;2023-03-01T07:59:09;103069.09;;;-2.25;86.63
73267;BME280;61495;53.400;7.608;2023-03-01T08:01:35;103069.81;;;-2.21;86.79
73267;BME280;61495;53.400;7.608;2023-03-01T08:04:00;103065.56;;;-2.23;86.80
73267;BME280;61495;53.400;7.608;2023-03-01T08:06:27;103079.81;;;-2.10;87.08
73267;BME280;61495;53.400;7.608;2023-03-01T08:08:52;103075.28;;;-2.07;87.42
73267;BME280;61495;53.400;7.608;2023-03-01T08:11:20;103085.56;;;-2.02;87.73
73267;BME280;61495;53.400;7.608;2023-03-01T08:13:47;103086.22;;;-1.97;88.14
73267;BME280;61495;53.400;7.608;2023-03-01T08:16:14;103089.56;;;-1.94;87.24
73267;BME280;61495;53.400;7.608;2023-03-01T08:18:40;103082.44;;;-1.92;87.42
73267;BME280;61495;53.400;7.608;2023-03-01T08:21:13;103077.81;;;-1.87;87.10
73267;BME280;61495;53.400;7.608;2023-03-01T08:23:40;103075.84;;;-1.82;87.79
73267;BME280;61495;53.400;7.608;2023-03-01T08:26:13;103085.22;;;-1.76;87.22
73267;BME280;61495;53.400;7.608;2023-03-01T08:28:39;103076.34;;;-1.74;86.91
73267;BME280;61495;53.400;7.608;2023-03-01T08:31:26;103079.59;;;-1.69;87.31
73267;BME280;61495;53.400;7.608;2023-03-01T08:33:56;103067.25;;;-1.66;88.12
73267;BME280;61495;53.400;7.608;2023-03-01T08:36:27;103068.63;;;-1.59;87.52
73267;BME280;61495;53.400;7.608;2023-03-01T08:38:53;103059.69;;;-1.55;87.50
73267;BME280;61495;53.400;7.608;2023-03-01T08:41:19;103057.69;;;-1.50;88.18
73267;BME280;61495;53.400;7.608;2023-03-01T08:43:45;103057.53;;;-1.47;87.34
73267;BME280;61495;53.400;7.608;2023-03-01T08:46:10;103058.09;;;-1.41;88.04
73267;BME280;61495;53.400;7.608;2023-03-01T08:48:36;103053.41;;;-1.34;87.95
73267;BME280;61495;53.400;7.608;2023-03-01T08:51:16;103040.00;;;-1.30;87.58
73267;BME280;61495;53.400;7.608;2023-03-01T08:53:41;103042.44;;;-1.25;87.30
73267;BME280;61495;53.400;7.608;2023-03-01T08:56:08;103051.69;;;-1.18;87.26
73267;BME280;61495;53.400;7.608;2023-03-01T08:58:33;103054.88;;;-1.12;88.18
73267;BME280;61495;53.400;7.608;2023-03-01T09:00:59;103058.81;;;-1.03;89.32
73267;BME280;61495;53.400;7.608;2023-03-01T09:03:24;103062.69;;;-0.93;91.03
73267;BME280;61495;53.400;7.608;2023-03-01T09:05:51;103060.38;;;-0.82;89.80
73267;BME280;61495;53.400;7.608;2023-03-01T09:08:17;103071.03;;;-0.68;91.50
73267;BME280;61495;53.400;7.608;2023-03-01T09:10:42;103072.94;;;-0.54;94.34
73267;BME280;61495;53.400;7.608;2023-03-01T09:13:08;103064.31;;;-0.40;92.35
73267;BME280;61495;53.400;7.608;2023-03-01T09:15:33;103068.44;;;-0.19;92.79
73267;BME280;61495;53.400;7.608;2023-03-01T09:17:59;103066.69;;;-0.03;91.15
73267;BME280;61495;53.400;7.608;2023-03-01T09:20:24;103057.91;;;0.12;90.17
73267;BME280;61495;53.400;7.608;2023-03-01T09:22:49;103062.97;;;0.32;90.59
73267;BME280;61495;53.400;7.608;2023-03-01T09:25:15;103057.75;;;0.46;90.74
73267;BME280;61495;53.400;7.608;2023-03-01T09:27:40;103057.63;;;0.64;90.82
73267;BME280;61495;53.400;7.608;2023-03-01T09:30:06;103060.16;;;0.81;90.37
73267;BME280;61495;53.400;7.608;2023-03-01T09:32:32;103058.31;;;0.97;90.46
73267;BME280;61495;53.400;7.608;2023-03-01T09:34:57;103059.03;;;1.15;89.85
73267;BME280;61495;53.400;7.608;2023-03-01T09:37:33;103050.69;;;1.36;90.53
73267;BME280;61495;53.400;7.608;2023-03-01T09:39:59;103042.19;;;1.59;90.43
73267;BME280;61495;53.400;7.608;2023-03-01T09:42:25;103044.25;;;1.83;90.44
73267;BME280;61495;53.400;7.608;2023-03-01T09:45:11;103045.75;;;2.01;89.61
73267;BME280;61495;53.400;7.608;2023-03-01T09:47:41;103047.97;;;2.21;90.08
73267;BME280;61495;53.400;7.608;2023-03-01T09:50:14;103050.75;;;2.46;90.52
73267;BME280;61495;53.400;7.608;2023-03-01T09:53:02;103048.56;;;2.65;90.13
73267;BME280;61495;53.400;7.608;2023-03-01T09:55:43;103051.31;;;2.91;90.09
73267;BME280;61495;53.400;7.608;2023-03-01T10:01:27;103064.19;;;3.47;89.65
73267;BME280;61495;53.400;7.608;2023-03-01T10:06:34;103069.75;;;3.80;89.45
73267;BME280;61495;53.400;7.608;2023-03-01T10:09:10;103060.28;;;4.02;90.04
73267;BME280;61495;53.400;7.608;2023-03-01T10:11:38;103067.16;;;4.17;89.87
73267;BME280;61495;53.400;7.608;2023-03-01T10:17:00;103052.50;;;4.71;89.25
73267;BME280;61495;53.400;7.608;2023-03-01T10:19:40;103053.69;;;5.02;88.94
73267;BME280;61495;53.400;7.608;2023-03-01T10:24:44;103056.94;;;5.40;85.72
73267;BME280;61495;53.400;7.608;2023-03-01T10:27:19;103053.59;;;5.60;85.38
73267;BME280;61495;53.400;7.608;2023-03-01T10:30:21;103052.25;;;5.77;81.91
73267;BME280;61495;53.400;7.608;2023-03-01T10:32:49;103052.00;;;5.80;81.88
73267;BME280;61495;53.400;7.608;2023-03-01T10:35:26;103046.72;;;5.91;82.66
73267;BME280;61495;53.400;7.608;2023-03-01T10:38:05;103045.72;;;6.03;81.85
73267;BME280;61495;53.400;7.608;2023-03-01T10:40:33;103039.66;;;6.12;81.22
73267;BME280;61495;53.400;7.608;2023-03-01T10:43:01;103030.22;;;6.20;80.22
73267;BME280;61495;53.400;7.608;2023-03-01T10:45:38;103024.59;;;6.45;80.12
73267;BME280;61495;53.400;7.608;2023-03-01T10:48:22;103023.56;;;6.57;78.57
73267;BME280;61495;53.400;7.608;2023-03-01T10:51:06;103024.25;;;6.70;78.00
73267;BME280;61495;53.400;7.608;2023-03-01T10:53:35;103021.88;;;6.88;78.39
73267;BME280;61495;53.400;7.608;2023-03-01T10:56:11;103028.69;;;7.01;77.70
73267;BME280;61495;53.400;7.608;2023-03-01T10:58:40;103025.41;;;7.09;78.33
73267;BME280;61495;53.400;7.608;2023-03-01T11:03:41;103024.66;;;7.27;75.72
73267;BME280;61495;53.400;7.608;2023-03-01T11:08:46;103018.78;;;7.34;74.16
73267;BME280;61495;53.400;7.608;2023-03-01T11:14:12;103018.09;;;7.32;71.60
73267;BME280;61495;53.400;7.608;2023-03-01T11:16:42;103018.41;;;7.38;72.05
73267;BME280;61495;53.400;7.608;2023-03-01T11:21:39;103007.44;;;7.62;73.52
73267;BME280;61495;53.400;7.608;2023-03-01T11:24:08;103016.13;;;7.64;71.36
73267;BME280;61495;53.400;7.608;2023-03-01T11:26:38;103015.75;;;7.68;69.70
73267;BME280;61495;53.400;7.608;2023-03-01T11:29:10;103018.09;;;7.62;68.16
73267;BME280;61495;53.400;7.608;2023-03-01T11:31:39;103012.19;;;7.58;68.68
73267;BME280;61495;53.400;7.608;2023-03-01T11:34:19;103009.31;;;7.71;69.77
73267;BME280;61495;53.400;7.608;2023-03-01T11:36:55;103008.38;;;7.91;71.08
73267;BME280;61495;53.400;7.608;2023-03-01T11:39:42;103001.25;;;8.01;71.09
73267;BME280;61495;53.400;7.608;2023-03-01T11:42:19;103009.53;;;8.08;70.35
73267;BME280;61495;53.400;7.608;2023-03-01T11:44:48;103012.91;;;8.00;70.67
73267;BME280;61495;53.400;7.608;2023-03-01T11:47:28;103009.16;;;8.22;69.52
73267;BME280;61495;53.400;7.608;2023-03-01T12:01:37;103006.06;;;8.26;70.91
73267;BME280;61495;53.400;7.608;2023-03-01T12:06:56;102999.63;;;8.29;68.47
73267;BME280;61495;53.400;7.608;2023-03-01T12:09:57;102996.13;;;8.38;70.30
73267;BME280;61495;53.400;7.608;2023-03-01T12:12:57;102999.63;;;8.29;68.28
73267;BME280;61495;53.400;7.608;2023-03-01T12:26:32;102974.47;;;8.31;66.59
73267;BME280;61495;53.400;7.608;2023-03-01T12:29:20;102971.97;;;8.40;67.84
73267;BME280;61495;53.400;7.608;2023-03-01T12:51:25;102944.97;;;8.62;66.67
73267;BME280;61495;53.400;7.608;2023-03-01T12:53:54;102945.25;;;8.59;67.03
73267;BME280;61495;53.400;7.608;2023-03-01T12:56:26;102942.84;;;8.65;68.53
73267;BME280;61495;53.400;7.608;2023-03-01T12:59:13;102933.69;;;8.77;68.12
73267;BME280;61495;53.400;7.608;2023-03-01T13:01:55;102942.16;;;8.73;66.10
73267;BME280;61495;53.400;7.608;2023-03-01T13:04:31;102933.41;;;8.80;65.96
73267;BME280;61495;53.400;7.608;2023-03-01T13:07:10;102929.75;;;8.81;66.19
73267;BME280;61495;53.400;7.608;2023-03-01T13:17:48;102908.47;;;8.99;67.47
73267;BME280;61495;53.400;7.608;2023-03-01T13:20:17;102906.34;;;9.03;68.02
73267;BME280;61495;53.400;7.608;2023-03-01T13:22:45;102904.50;;;9.03;68.08
73267;BME280;61495;53.400;7.608;2023-03-01T13:25:16;102903.78;;;9.11;68.49
73267;BME280;61495;53.400;7.608;2023-03-01T13:27:43;102903.78;;;9.11;66.79
73267;BME280;61495;53.400;7.608;2023-03-01T13:35:48;102884.34;;;9.09;68.34
73267;BME280;61495;53.400;7.608;2023-03-01T13:38:48;102889.66;;;9.18;68.00
73267;BME280;61495;53.400;7.608;2023-03-01T13:49:58;102872.53;;;9.11;68.78
73267;BME280;61495;53.400;7.608;2023-03-01T13:55:18;102869.03;;;9.11;68.46
73267;BME280;61495;53.400;7.608;2023-03-01T13:57:47;102872.47;;;9.21;69.21
73267;BME280;61495;53.400;7.608;2023-03-01T14:03:04;102867.09;;;9.30;69.21
73267;BME280;61495;53.400;7.608;2023-03-01T14:05:30;102860.47;;;9.34;70.19
73267;BME280;61495;53.400;7.608;2023-03-01T14:07:56;102861.34;;;9.53;70.02
73267;BME280;61495;53.400;7.608;2023-03-01T14:10:23;102860.53;;;9.42;69.96
73267;BME280;61495;53.400;7.608;2023-03-01T14:18:57;102855.44;;;9.22;69.99
73267;BME280;61495;53.400;7.608;2023-03-01T14:21:27;102854.22;;;9.16;68.82
73267;BME280;61495;53.400;7.608;2023-03-01T14:23:54;102847.75;;;9.09;69.73
73267;BME280;61495;53.400;7.608;2023-03-01T14:26:23;102846.31;;;9.15;69.67
73267;BME280;61495;53.400;7.608;2023-03-01T14:28:49;102841.53;;;9.18;70.17
73267;BME280;61495;53.400;7.608;2023-03-01T14:31:35;102847.78;;;9.36;70.49
73267;BME280;61495;53.400;7.608;2023-03-01T14:34:00;102848.88;;;9.16;69.80
73267;BME280;61495;53.400;7.608;2023-03-01T14:36:28;102838.22;;;9.07;69.56
73267;BME280;61495;53.400;7.608;2023-03-01T14:38:54;102835.59;;;9.24;70.31
73267;BME280;61495;53.400;7.608;2023-03-01T14:41:21;102835.50;;;9.16;70.19
73267;BME280;61495;53.400;7.608;2023-03-01T14:43:51;102837.34;;;9.06;69.42
73267;BME280;61495;53.400;7.608;2023-03-01T14:46:25;102836.00;;;9.02;69.62
73267;BME280;61495;53.400;7.608;2023-03-01T14:48:54;102825.28;;;9.02;69.31
73267;BME280;61495;53.400;7.608;2023-03-01T14:51:20;102820.47;;;9.06;69.62
73267;BME280;61495;53.400;7.608;2023-03-01T14:53:46;102823.91;;;8.98;69.76
73267;BME280;61495;53.400;7.608;2023-03-01T14:56:13;102818.75;;;8.87;70.17